| time (UTC) | temp C | wind direction | speed KPH | gust KPH | rain 1hr cm | rain 24hr cm | rain mn cm | humidity % | barometer mb |
| 20260906191103 | 26 | 176 | 11.3 | 19.3 | 0.00 | 0.00 | 0.00 | 66 | 1019.4 |
| 20260906190604 | 26 | 187 | 12.9 | 22.5 | 0.00 | 0.00 | 0.00 | 66 | 1019.3 |
| 20260906190104 | 26 | 184 | 11.3 | 16.1 | 0.00 | 0.00 | 0.00 | 67 | 1019.3 |
| 20260906185604 | 26 | 190 | 11.3 | 14.5 | 0.00 | 0.00 | 0.00 | 67 | 1019.2 |
| 20260906184604 | 26 | 127 | 9.7 | 16.1 | 0.00 | 0.00 | 0.00 | 68 | 1019.3 |
| 20260906184103 | 26 | 160 | 8.0 | 14.5 | 0.00 | 0.00 | 0.00 | 68 | 1019.3 |
| 20260906183604 | 26 | 117 | 8.0 | 14.5 | 0.00 | 0.00 | 0.00 | 68 | 1019.5 |
| 20260906182103 | 25 | 185 | 9.7 | 19.3 | 0.00 | 0.00 | 0.00 | 69 | 1019.6 |
| 20260906181604 | 25 | 197 | 11.3 | 20.9 | 0.00 | 0.00 | 0.00 | 70 | 1019.7 |
| 20260906180104 | 25 | 175 | 11.3 | 16.1 | 0.00 | 0.00 | 0.00 | 69 | 1019.6 |
| 20260906174604 | 25 | 135 | 6.4 | 16.1 | 0.00 | 0.00 | 0.00 | 70 | 1019.5 |
| 20260906174104 | 25 | 184 | 8.0 | 16.1 | 0.00 | 0.00 | 0.00 | 69 | 1019.7 |
| 20260906173603 | 25 | 167 | 8.0 | 16.1 | 0.00 | 0.00 | 0.00 | 69 | 1019.6 |
| 20260906172104 | 26 | 189 | 9.7 | 14.5 | 0.00 | 0.00 | 0.00 | 68 | 1019.6 |
| 20260906171604 | 26 | 174 | 11.3 | 20.9 | 0.00 | 0.00 | 0.00 | 67 | 1019.8 |
| 20260906171103 | 25 | 168 | 8.0 | 19.3 | 0.00 | 0.00 | 0.00 | 71 | 1019.8 |
| 20260906170604 | 25 | 171 | 9.7 | 20.9 | 0.00 | 0.00 | 0.00 | 69 | 1020.1 |
| 20260906170106 | 25 | 162 | 9.7 | 16.1 | 0.00 | 0.00 | 0.00 | 69 | 1020.0 |
| 20260906165603 | 25 | 141 | 8.0 | 14.5 | 0.00 | 0.00 | 0.00 | 70 | 1020.2 |
| 20260906165104 | 26 | 128 | 8.0 | 19.3 | 0.00 | 0.00 | 0.00 | 69 | 1020.0 |
| 20260906164603 | 25 | 202 | 8.0 | 22.5 | 0.00 | 0.00 | 0.00 | 70 | 1019.8 |
| 20260906164104 | 25 | 104 | 8.0 | 20.9 | 0.00 | 0.00 | 0.00 | 71 | 1019.9 |
| 20260906163604 | 25 | 133 | 8.0 | 20.9 | 0.00 | 0.00 | 0.00 | 72 | 1020.2 |
| 20260906163103 | 25 | 157 | 8.0 | 19.3 | 0.00 | 0.00 | 0.00 | 72 | 1020.2 |
| 20260906162104 | 24 | 148 | 9.7 | 16.1 | 0.00 | 0.00 | 0.00 | 75 | 1020.2 |
| 20260906161604 | 24 | 172 | 9.7 | 16.1 | 0.00 | 0.00 | 0.00 | 76 | 1020.4 |
| 20260906161104 | 23 | 164 | 9.7 | 20.9 | 0.00 | 0.00 | 0.00 | 76 | 1020.4 |
| 20260906160604 | 23 | 130 | 9.7 | 19.3 | 0.00 | 0.00 | 0.00 | 76 | 1020.4 |
| 20260906160104 | 23 | 161 | 8.0 | 19.3 | 0.00 | 0.00 | 0.00 | 77 | 1020.7 |
| 20260906154604 | 23 | 178 | 9.7 | 19.3 | 0.00 | 0.00 | 0.00 | 77 | 1020.5 |
| 20260906154104 | 23 | 166 | 9.7 | 16.1 | 0.00 | 0.00 | 0.00 | 77 | 1020.4 |
| 20260906153604 | 24 | 176 | 11.3 | 16.1 | 0.00 | 0.00 | 0.00 | 75 | 1020.3 |
| 20260906153104 | 23 | 142 | 9.7 | 14.5 | 0.00 | 0.00 | 0.00 | 77 | 1020.7 |
| 20260906152604 | 23 | 170 | 9.7 | 14.5 | 0.00 | 0.00 | 0.00 | 79 | 1020.8 |
| 20260906152103 | 23 | 155 | 8.0 | 16.1 | 0.00 | 0.00 | 0.00 | 78 | 1020.7 |
| 20260906151104 | 23 | 122 | 8.0 | 19.3 | 0.00 | 0.00 | 0.00 | 79 | 1020.7 |
| 20260906150604 | 23 | 159 | 11.3 | 22.5 | 0.00 | 0.00 | 0.00 | 77 | 1020.4 |
| 20260906150104 | 23 | 171 | 4.8 | 14.5 | 0.00 | 0.00 | 0.00 | 79 | 1020.5 |
| 20260906145603 | 23 | 136 | 8.0 | 19.3 | 0.00 | 0.00 | 0.00 | 80 | 1020.3 |
| 20260906145104 | 23 | 112 | 8.0 | 19.3 | 0.00 | 0.00 | 0.00 | 79 | 1020.2 |
| 20260906144603 | 23 | 118 | 9.7 | 20.9 | 0.00 | 0.00 | 0.00 | 79 | 1020.2 |
| 20260906144104 | 23 | 174 | 8.0 | 12.9 | 0.00 | 0.00 | 0.00 | 80 | 1020.5 |
| 20260906143604 | 23 | 196 | 6.4 | 12.9 | 0.00 | 0.00 | 0.00 | 81 | 1020.4 |
| 20260906143104 | 22 | 182 | 8.0 | 12.9 | 0.00 | 0.00 | 0.00 | 81 | 1020.5 |
| 20260906142604 | 23 | 155 | 8.0 | 14.5 | 0.00 | 0.00 | 0.00 | 81 | 1020.4 |
| 20260906142104 | 23 | 152 | 8.0 | 14.5 | 0.00 | 0.00 | 0.00 | 80 | 1020.4 |
| 20260906141603 | 23 | 115 | 8.0 | 14.5 | 0.00 | 0.00 | 0.00 | 81 | 1020.4 |
| 20260906141104 | 23 | 118 | 6.4 | 12.9 | 0.00 | 0.00 | 0.00 | 81 | 1020.3 |
| 20260906140603 | 22 | 147 | 4.8 | 14.5 | 0.00 | 0.00 | 0.00 | 83 | 1020.3 |
| 20260906140104 | 22 | 140 | 4.8 | 12.9 | 0.00 | 0.00 | 0.00 | 84 | 1020.4 |
| 20260906135603 | 22 | 75 | 4.8 | 12.9 | 0.00 | 0.00 | 0.00 | 85 | 1020.4 |
| 20260906135104 | 22 | 122 | 8.0 | 14.5 | 0.00 | 0.00 | 0.00 | 85 | 1020.3 |
| 20260906134604 | 21 | 120 | 3.2 | 11.3 | 0.00 | 0.00 | 0.00 | 86 | 1020.3 |
| 20260906133604 | 21 | 119 | 6.4 | 11.3 | 0.00 | 0.00 | 0.00 | 87 | 1020.3 |
| 20260906133104 | 21 | 120 | 9.7 | 19.3 | 0.00 | 0.00 | 0.00 | 88 | 1020.3 |
| 20260906132604 | 21 | 177 | 4.8 | 14.5 | 0.00 | 0.00 | 0.00 | 89 | 1020.2 |
| 20260906132104 | 21 | 105 | 4.8 | 12.9 | 0.00 | 0.00 | 0.00 | 90 | 1020.1 |
| 20260906131603 | 21 | 129 | 9.7 | 14.5 | 0.00 | 0.00 | 0.00 | 91 | 1020.1 |
| 20260906131104 | 20 | 119 | 6.4 | 11.3 | 0.00 | 0.00 | 0.00 | 92 | 1020.2 |
| 20260906130604 | 20 | 109 | 3.2 | 9.7 | 0.00 | 0.00 | 0.00 | 92 | 1020.0 |
| 20260906125603 | 20 | 104 | 4.8 | 11.3 | 0.00 | 0.00 | 0.00 | 93 | 1020.0 |
| 20260906125104 | 20 | 98 | 3.2 | 9.7 | 0.00 | 0.00 | 0.00 | 94 | 1020.1 |
| 20260906124603 | 20 | 80 | 3.2 | 8.0 | 0.00 | 0.00 | 0.00 | 94 | 1020.0 |
| 20260906124103 | 20 | 106 | 3.2 | 8.0 | 0.00 | 0.00 | 0.00 | 94 | 1020.1 |
| 20260906122604 | 19 | 76 | 3.2 | 8.0 | 0.00 | 0.00 | 0.00 | 95 | 1020.1 |
| 20260906122104 | 19 | 83 | 1.6 | 8.0 | 0.00 | 0.00 | 0.00 | 95 | 1019.9 |
| 20260906121604 | 19 | 114 | 4.8 | 8.0 | 0.00 | 0.00 | 0.00 | 95 | 1020.0 |
| 20260906121104 | 19 | 90 | 3.2 | 4.8 | 0.00 | 0.00 | 0.00 | 95 | 1019.8 |
| 20260906120604 | 19 | 98 | 3.2 | 4.8 | 0.00 | 0.00 | 0.00 | 95 | 1019.8 |
| 20260906120104 | 19 | 92 | 3.2 | 4.8 | 0.00 | 0.00 | 0.00 | 95 | 1019.9 |
| 20260906115604 | 19 | 49 | 1.6 | 3.2 | 0.00 | 0.00 | 0.00 | 94 | 1019.8 |
| 20260906115104 | 19 | 38 | 1.6 | 3.2 | 0.00 | 0.00 | 0.00 | 94 | 1019.6 |
| 20260906114604 | 19 | 62 | 0.0 | 1.6 | 0.00 | 0.00 | 0.00 | 94 | 1019.7 |
| 20260906113604 | 19 | 72 | 1.6 | 3.2 | 0.00 | 0.00 | 0.00 | 94 | 1019.5 |
| 20260906113104 | 19 | 68 | 1.6 | 3.2 | 0.00 | 0.00 | 0.00 | 94 | 1019.5 |
| 20260906112604 | 19 | 91 | 1.6 | 3.2 | 0.00 | 0.00 | 0.00 | 94 | 1019.5 |
| 20260906112104 | 19 | 85 | 1.6 | 3.2 | 0.00 | 0.00 | 0.00 | 94 | 1019.7 |
| 20260906111604 | 19 | 84 | 1.6 | 1.6 | 0.00 | 0.00 | 0.00 | 94 | 1019.4 |
| 20260906111103 | 19 | 84 | 1.6 | 1.6 | 0.00 | 0.00 | 0.00 | 94 | 1019.4 |
| 20260906110604 | 19 | 84 | 1.6 | 3.2 | 0.00 | 0.00 | 0.00 | 94 | 1019.2 |
| 20260906110104 | 19 | 66 | 1.6 | 3.2 | 0.00 | 0.00 | 0.00 | 94 | 1019.3 |
| 20260906105603 | 19 | 63 | 0.0 | 1.6 | 0.00 | 0.00 | 0.00 | 94 | 1019.2 |
| 20260906104103 | 19 | 87 | 0.0 | 3.2 | 0.00 | 0.00 | 0.00 | 93 | 1019.3 |
| 20260906103103 | 20 | 56 | 1.6 | 1.6 | 0.00 | 0.00 | 0.00 | 93 | 1019.1 |
| 20260906102103 | 19 | 56 | 0.0 | 1.6 | 0.00 | 0.00 | 0.00 | 93 | 1019.2 |
| 20260906101603 | 20 | 56 | 0.0 | 0.0 | 0.00 | 0.00 | 0.00 | 93 | 1019.2 |
| 20260906101104 | 20 | 56 | 0.0 | 0.0 | 0.00 | 0.00 | 0.00 | 93 | 1019.1 |
| 20260906100604 | 20 | 56 | 0.0 | 0.0 | 0.00 | 0.00 | 0.00 | 93 | 1019.1 |
| 20260906100105 | 20 | 56 | 0.0 | 0.0 | 0.00 | 0.00 | 0.00 | 92 | 1019.0 |
| 20260906095604 | 20 | 56 | 0.0 | 0.0 | 0.00 | 0.00 | 0.00 | 92 | 1019.0 |
| 20260906095103 | 20 | 56 | 0.0 | 0.0 | 0.00 | 0.00 | 0.00 | 92 | 1018.8 |
| 20260906094104 | 20 | 56 | 0.0 | 1.6 | 0.00 | 0.00 | 0.00 | 92 | 1018.6 |
| 20260906093604 | 20 | 56 | 0.0 | 1.6 | 0.00 | 0.00 | 0.00 | 92 | 1018.4 |
| 20260906093104 | 20 | 56 | 1.6 | 3.2 | 0.00 | 0.00 | 0.00 | 92 | 1018.4 |
| 20260906092604 | 20 | 101 | 1.6 | 3.2 | 0.00 | 0.00 | 0.00 | 91 | 1018.4 |
| 20260906092103 | 20 | 99 | 1.6 | 3.2 | 0.00 | 0.00 | 0.00 | 91 | 1018.5 |
| 20260906091603 | 20 | 80 | 0.0 | 3.2 | 0.00 | 0.00 | 0.00 | 91 | 1018.4 |
| 20260906090604 | 20 | 60 | 1.6 | 3.2 | 0.00 | 0.00 | 0.00 | 91 | 1018.3 |
| 20260906090104 | 20 | 87 | 3.2 | 4.8 | 0.00 | 0.00 | 0.00 | 91 | 1018.4 |
| 20260906085604 | 20 | 51 | 0.0 | 3.2 | 0.00 | 0.00 | 0.00 | 91 | 1018.3 |
| 20260906085104 | 20 | 87 | 1.6 | 4.8 | 0.00 | 0.00 | 0.00 | 91 | 1018.3 |
| 20260906084604 | 20 | 79 | 1.6 | 8.0 | 0.00 | 0.00 | 0.00 | 91 | 1018.3 |
| 20260906084103 | 20 | 105 | 3.2 | 8.0 | 0.00 | 0.00 | 0.00 | 91 | 1018.2 |
| 20260906083604 | 20 | 72 | 1.6 | 4.8 | 0.00 | 0.00 | 0.00 | 90 | 1018.3 |
| 20260906083104 | 20 | 77 | 1.6 | 3.2 | 0.00 | 0.00 | 0.00 | 90 | 1018.5 |
| 20260906082104 | 20 | 62 | 1.6 | 1.6 | 0.00 | 0.00 | 0.00 | 90 | 1018.2 |
| 20260906081604 | 21 | 81 | 1.6 | 3.2 | 0.00 | 0.00 | 0.00 | 90 | 1018.3 |
| 20260906081103 | 21 | 101 | 1.6 | 4.8 | 0.00 | 0.00 | 0.00 | 90 | 1018.4 |
| 20260906080604 | 21 | 104 | 1.6 | 4.8 | 0.00 | 0.00 | 0.00 | 90 | 1018.4 |
| 20260906080104 | 21 | 58 | 1.6 | 3.2 | 0.00 | 0.00 | 0.00 | 89 | 1018.4 |
| 20260906075604 | 21 | 69 | 1.6 | 4.8 | 0.00 | 0.00 | 0.00 | 89 | 1018.2 |
| 20260906075104 | 21 | 72 | 0.0 | 4.8 | 0.00 | 0.00 | 0.00 | 89 | 1018.4 |
| 20260906074604 | 21 | 75 | 0.0 | 3.2 | 0.00 | 0.00 | 0.00 | 89 | 1018.3 |
| 20260906074103 | 21 | 72 | 1.6 | 3.2 | 0.00 | 0.00 | 0.00 | 88 | 1018.5 |
| 20260906073604 | 21 | 71 | 1.6 | 3.2 | 0.00 | 0.00 | 0.00 | 88 | 1018.3 |
| 20260906073103 | 21 | 86 | 3.2 | 4.8 | 0.00 | 0.00 | 0.00 | 88 | 1018.3 |
| 20260906072603 | 21 | 84 | 1.6 | 1.6 | 0.00 | 0.00 | 0.00 | 87 | 1018.5 |
| 20260906072104 | 21 | 83 | 0.0 | 3.2 | 0.00 | 0.00 | 0.00 | 87 | 1018.6 |
| 20260906071604 | 21 | 85 | 0.0 | 3.2 | 0.00 | 0.00 | 0.00 | 86 | 1018.6 |
| 20260906071104 | 21 | 85 | 1.6 | 3.2 | 0.00 | 0.00 | 0.00 | 86 | 1018.7 |
| 20260906070104 | 21 | 66 | 0.0 | 3.2 | 0.00 | 0.00 | 0.00 | 86 | 1018.6 |
| 20260906065604 | 21 | 66 | 0.0 | 3.2 | 0.00 | 0.00 | 0.00 | 86 | 1018.9 |
| 20260906064103 | 22 | 65 | 1.6 | 3.2 | 0.00 | 0.00 | 0.00 | 85 | 1018.8 |
| 20260906063604 | 22 | 84 | 1.6 | 4.8 | 0.00 | 0.00 | 0.00 | 85 | 1018.7 |
| 20260906063104 | 22 | 88 | 1.6 | 8.0 | 0.00 | 0.00 | 0.00 | 85 | 1018.8 |
| 20260906062604 | 22 | 101 | 3.2 | 4.8 | 0.00 | 0.00 | 0.00 | 85 | 1018.8 |
| 20260906062104 | 22 | 96 | 1.6 | 4.8 | 0.00 | 0.00 | 0.00 | 85 | 1018.9 |
| 20260906061604 | 22 | 97 | 1.6 | 3.2 | 0.00 | 0.00 | 0.00 | 85 | 1018.8 |
| 20260906061104 | 22 | 96 | 1.6 | 3.2 | 0.00 | 0.00 | 0.00 | 84 | 1018.8 |
| 20260906060604 | 22 | 95 | 0.0 | 3.2 | 0.00 | 0.00 | 0.00 | 84 | 1018.9 |
| 20260906055603 | 22 | 95 | 1.6 | 3.2 | 0.00 | 0.00 | 0.00 | 84 | 1018.9 |
| 20260906055103 | 22 | 95 | 1.6 | 3.2 | 0.00 | 0.00 | 0.00 | 84 | 1018.9 |
| 20260906054104 | 21 | 95 | 0.0 | 1.6 | 0.00 | 0.00 | 0.00 | 85 | 1019.0 |
| 20260906053604 | 21 | 95 | 0.0 | 0.0 | 0.00 | 0.00 | 0.00 | 85 | 1019.0 |
| 20260906053104 | 21 | 95 | 0.0 | 1.6 | 0.00 | 0.00 | 0.00 | 84 | 1019.1 |
| 20260906052604 | 21 | 95 | 0.0 | 1.6 | 0.00 | 0.00 | 0.00 | 84 | 1019.0 |
| 20260906052104 | 22 | 95 | 0.0 | 1.6 | 0.00 | 0.00 | 0.00 | 83 | 1019.1 |
| 20260906051604 | 22 | 95 | 0.0 | 1.6 | 0.00 | 0.00 | 0.00 | 83 | 1018.9 |
| 20260906051104 | 22 | 95 | 0.0 | 0.0 | 0.00 | 0.00 | 0.00 | 82 | 1018.9 |
| 20260906050604 | 22 | 95 | 0.0 | 1.6 | 0.00 | 0.00 | 0.00 | 81 | 1018.8 |
| 20260906050104 | 22 | 95 | 1.6 | 3.2 | 0.00 | 0.00 | 0.00 | 81 | 1018.8 |
| 20260906045604 | 22 | 95 | 1.6 | 3.2 | 0.00 | 0.00 | 0.00 | 81 | 1019.0 |
| 20260906045103 | 22 | 95 | 0.0 | 1.6 | 0.00 | 0.00 | 0.00 | 81 | 1019.1 |
| 20260906044604 | 22 | 95 | 1.6 | 1.6 | 0.00 | 0.00 | 0.00 | 81 | 1019.0 |
| 20260906044104 | 22 | 95 | 1.6 | 1.6 | 0.00 | 0.00 | 0.00 | 81 | 1019.1 |
| 20260906043104 | 22 | 95 | 0.0 | 0.0 | 0.00 | 0.00 | 0.00 | 81 | 1019.2 |
| 20260906042604 | 22 | 95 | 0.0 | 1.6 | 0.00 | 0.00 | 0.00 | 80 | 1019.3 |
| 20260906042104 | 23 | 95 | 0.0 | 0.0 | 0.00 | 0.00 | 0.00 | 79 | 1019.2 |
| 20260906041604 | 23 | 95 | 0.0 | 1.6 | 0.00 | 0.00 | 0.00 | 79 | 1019.2 |
| 20260906041103 | 22 | 95 | 0.0 | 1.6 | 0.00 | 0.00 | 0.00 | 79 | 1019.2 |
| 20260906040604 | 22 | 95 | 1.6 | 3.2 | 0.00 | 0.00 | 0.00 | 80 | 1019.2 |
| 20260906040105 | 22 | 95 | 1.6 | 3.2 | 0.00 | 0.00 | 0.00 | 80 | 1019.2 |
| 20260906035604 | 22 | 92 | 1.6 | 1.6 | 0.00 | 0.00 | 0.00 | 80 | 1019.2 |
| 20260906035104 | 22 | 92 | 0.0 | 0.0 | 0.00 | 0.00 | 0.00 | 80 | 1019.4 |
| 20260906034604 | 22 | 92 | 0.0 | 1.6 | 0.00 | 0.00 | 0.00 | 80 | 1019.5 |
| 20260906033604 | 23 | 92 | 0.0 | 0.0 | 0.00 | 0.00 | 0.00 | 79 | 1019.5 |
| 20260906032604 | 23 | 93 | 0.0 | 0.0 | 0.00 | 0.00 | 0.00 | 78 | 1019.6 |
| 20260906032103 | 23 | 93 | 1.6 | 1.6 | 0.00 | 0.00 | 0.00 | 77 | 1019.3 |
| 20260906031604 | 23 | 92 | 0.0 | 0.0 | 0.00 | 0.00 | 0.00 | 76 | 1019.5 |
| 20260906031103 | 23 | 92 | 0.0 | 3.2 | 0.00 | 0.00 | 0.00 | 76 | 1019.6 |
| 20260906030604 | 23 | 93 | 0.0 | 3.2 | 0.00 | 0.00 | 0.00 | 75 | 1019.7 |
| 20260906025603 | 24 | 84 | 1.6 | 3.2 | 0.00 | 0.00 | 0.00 | 74 | 1019.4 |
| 20260906024604 | 24 | 64 | 1.6 | 3.2 | 0.00 | 0.00 | 0.00 | 73 | 1019.5 |
| 20260906024103 | 24 | 59 | 1.6 | 3.2 | 0.00 | 0.00 | 0.00 | 73 | 1019.7 |
| 20260906023603 | 24 | 58 | 0.0 | 0.0 | 0.00 | 0.00 | 0.00 | 73 | 1019.4 |
| 20260906023104 | 24 | 58 | 0.0 | 1.6 | 0.00 | 0.00 | 0.00 | 72 | 1019.3 |
| 20260906022604 | 24 | 58 | 0.0 | 3.2 | 0.00 | 0.00 | 0.00 | 72 | 1019.1 |
| 20260906022103 | 24 | 55 | 1.6 | 1.6 | 0.00 | 0.00 | 0.00 | 72 | 1019.1 |
| 20260906021604 | 24 | 52 | 0.0 | 3.2 | 0.00 | 0.00 | 0.00 | 71 | 1019.1 |
| 20260906021103 | 24 | 57 | 1.6 | 4.8 | 0.00 | 0.00 | 0.00 | 71 | 1018.8 |
| 20260906020604 | 24 | 106 | 3.2 | 8.0 | 0.00 | 0.00 | 0.00 | 71 | 1018.7 |
| 20260906020105 | 24 | 96 | 3.2 | 4.8 | 0.00 | 0.00 | 0.00 | 71 | 1018.5 |
| 20260906015603 | 25 | 47 | 1.6 | 3.2 | 0.00 | 0.00 | 0.00 | 71 | 1018.3 |
| 20260906014604 | 25 | 117 | 1.6 | 8.0 | 0.00 | 0.00 | 0.00 | 70 | 1018.2 |
| 20260906014104 | 25 | 80 | 1.6 | 9.7 | 0.00 | 0.00 | 0.00 | 70 | 1017.9 |
| 20260906013103 | 25 | 75 | 1.6 | 8.0 | 0.00 | 0.00 | 0.00 | 70 | 1017.7 |
| 20260906012104 | 25 | 57 | 1.6 | 4.8 | 0.00 | 0.00 | 0.00 | 69 | 1017.4 |
| 20260906011104 | 25 | 100 | 3.2 | 8.0 | 0.00 | 0.00 | 0.00 | 68 | 1017.5 |
| 20260906010604 | 25 | 101 | 3.2 | 8.0 | 0.00 | 0.00 | 0.00 | 68 | 1017.2 |
| 20260906010104 | 26 | 101 | 3.2 | 8.0 | 0.00 | 0.00 | 0.00 | 68 | 1017.2 |
| 20260906005604 | 26 | 105 | 3.2 | 9.7 | 0.00 | 0.00 | 0.00 | 67 | 1017.0 |
| 20260906004604 | 26 | 92 | 4.8 | 9.7 | 0.00 | 0.00 | 0.00 | 67 | 1016.9 |
| 20260906004104 | 26 | 95 | 3.2 | 8.0 | 0.00 | 0.00 | 0.00 | 66 | 1016.9 |
| 20260906003604 | 26 | 88 | 3.2 | 11.3 | 0.00 | 0.00 | 0.00 | 66 | 1016.6 |
| 20260906003103 | 26 | 50 | 1.6 | 11.3 | 0.00 | 0.00 | 0.00 | 65 | 1016.7 |
| 20260906002604 | 26 | 84 | 3.2 | 8.0 | 0.00 | 0.00 | 0.00 | 65 | 1016.5 |
| 20260906001603 | 27 | 116 | 8.0 | 16.1 | 0.00 | 0.00 | 0.00 | 64 | 1016.3 |
| 20260906001104 | 27 | 102 | 6.4 | 14.5 | 0.00 | 0.00 | 0.00 | 63 | 1016.2 |
| 20260906000603 | 27 | 115 | 8.0 | 19.3 | 0.00 | 0.00 | 0.00 | 62 | 1016.3 |
| 20260906000104 | 27 | 84 | 3.2 | 12.9 | 0.00 | 0.00 | 0.00 | 62 | 1016.4 |
| 20260905235604 | 27 | 94 | 4.8 | 12.9 | 0.00 | 0.00 | 0.00 | 61 | 1016.5 |
| 20260905234604 | 28 | 90 | 4.8 | 11.3 | 0.00 | 0.00 | 0.00 | 61 | 1016.7 |
| 20260905234104 | 28 | 82 | 3.2 | 12.9 | 0.00 | 0.00 | 0.00 | 60 | 1016.7 |
| 20260905233604 | 28 | 101 | 4.8 | 11.3 | 0.00 | 0.00 | 0.00 | 60 | 1016.6 |
| 20260905233104 | 28 | 91 | 6.4 | 12.9 | 0.00 | 0.00 | 0.00 | 60 | 1016.5 |
| 20260905232604 | 28 | 109 | 6.4 | 14.5 | 0.00 | 0.00 | 0.00 | 60 | 1016.3 |
| 20260905231603 | 28 | 40 | 3.2 | 11.3 | 0.00 | 0.00 | 0.00 | 59 | 1016.4 |
| 20260905231104 | 28 | 50 | 4.8 | 11.3 | 0.00 | 0.00 | 0.00 | 59 | 1016.2 |
| 20260905230604 | 28 | 93 | 3.2 | 11.3 | 0.00 | 0.00 | 0.00 | 59 | 1016.2 |
| 20260905225604 | 28 | 146 | 4.8 | 14.5 | 0.00 | 0.00 | 0.00 | 59 | 1015.8 |
| 20260905225104 | 28 | 118 | 4.8 | 14.5 | 0.00 | 0.00 | 0.00 | 59 | 1016.2 |
| 20260905224604 | 28 | 82 | 4.8 | 16.1 | 0.00 | 0.00 | 0.00 | 58 | 1016.1 |
| 20260905223604 | 28 | 47 | 4.8 | 16.1 | 0.00 | 0.00 | 0.00 | 58 | 1016.0 |
| 20260905223104 | 28 | 122 | 8.0 | 14.5 | 0.00 | 0.00 | 0.00 | 57 | 1016.0 |
| 20260905222604 | 28 | 101 | 6.4 | 16.1 | 0.00 | 0.00 | 0.00 | 58 | 1016.2 |
| 20260905222104 | 28 | 55 | 9.7 | 16.1 | 0.00 | 0.00 | 0.00 | 59 | 1016.3 |
| 20260905221104 | 28 | 107 | 6.4 | 20.9 | 0.00 | 0.00 | 0.00 | 60 | 1016.5 |
| 20260905220105 | 28 | 102 | 6.4 | 19.3 | 0.00 | 0.00 | 0.00 | 60 | 1016.5 |
| 20260905215604 | 28 | 74 | 4.8 | 12.9 | 0.00 | 0.00 | 0.00 | 60 | 1016.5 |
| 20260905215104 | 28 | 92 | 4.8 | 14.5 | 0.00 | 0.00 | 0.00 | 59 | 1016.3 |
| 20260905214604 | 28 | 80 | 4.8 | 16.1 | 0.00 | 0.00 | 0.00 | 61 | 1016.1 |
| 20260905214104 | 28 | 122 | 8.0 | 14.5 | 0.00 | 0.00 | 0.00 | 61 | 1016.0 |
| 20260905213603 | 28 | 69 | 6.4 | 12.9 | 0.00 | 0.00 | 0.00 | 61 | 1016.1 |
| 20260905213103 | 28 | 84 | 9.7 | 24.1 | 0.00 | 0.00 | 0.00 | 61 | 1016.2 |
| 20260905212603 | 28 | 77 | 4.8 | 11.3 | 0.00 | 0.00 | 0.00 | 60 | 1016.2 |
| 20260905212103 | 28 | 106 | 4.8 | 12.9 | 0.00 | 0.00 | 0.00 | 60 | 1016.3 |
| 20260905211605 | 28 | 92 | 8.0 | 16.1 | 0.00 | 0.00 | 0.00 | 61 | 1016.6 |
| 20260905211104 | 28 | 88 | 6.4 | 19.3 | 0.00 | 0.00 | 0.00 | 61 | 1016.7 |
| 20260905210603 | 28 | 131 | 11.3 | 19.3 | 0.00 | 0.00 | 0.00 | 61 | 1017.0 |
| 20260905210104 | 28 | 41 | 4.8 | 14.5 | 0.00 | 0.00 | 0.00 | 62 | 1017.2 |
| 20260905205604 | 27 | 67 | 3.2 | 12.9 | 0.00 | 0.00 | 0.00 | 62 | 1017.1 |
| 20260905205103 | 27 | 55 | 4.8 | 16.1 | 0.00 | 0.00 | 0.00 | 63 | 1017.3 |
| 20260905204604 | 27 | 127 | 6.4 | 14.5 | 0.00 | 0.00 | 0.00 | 62 | 1017.5 |
| 20260905204103 | 28 | 122 | 6.4 | 14.5 | 0.00 | 0.00 | 0.00 | 61 | 1017.5 |
| 20260905203604 | 28 | 117 | 3.2 | 9.7 | 0.00 | 0.00 | 0.00 | 62 | 1017.4 |
| 20260905203104 | 27 | 65 | 3.2 | 16.1 | 0.00 | 0.00 | 0.00 | 63 | 1017.6 |
| 20260905202604 | 27 | 143 | 6.4 | 16.1 | 0.00 | 0.00 | 0.00 | 63 | 1017.6 |
| 20260905202104 | 27 | 49 | 8.0 | 14.5 | 0.00 | 0.00 | 0.00 | 63 | 1017.6 |
| 20260905201104 | 27 | 54 | 3.2 | 8.0 | 0.00 | 0.00 | 0.00 | 65 | 1018.1 |
| 20260905200604 | 27 | 68 | 3.2 | 9.7 | 0.00 | 0.00 | 0.00 | 65 | 1018.2 |
| 20260905200104 | 27 | 67 | 1.6 | 11.3 | 0.00 | 0.00 | 0.00 | 66 | 1018.4 |
| 20260905195604 | 27 | 126 | 4.8 | 12.9 | 0.00 | 0.00 | 0.00 | 65 | 1018.3 |
| 20260905194604 | 27 | 13 | 3.2 | 9.7 | 0.00 | 0.00 | 0.00 | 65 | 1018.5 |
| 20260905194104 | 27 | 57 | 0.0 | 3.2 | 0.00 | 0.00 | 0.00 | 66 | 1018.4 |
| 20260905193604 | 26 | 6 | 1.6 | 9.7 | 0.00 | 0.00 | 0.00 | 68 | 1018.4 |
| 20260905193104 | 26 | 53 | 4.8 | 11.3 | 0.00 | 0.00 | 0.00 | 67 | 1018.5 |
| 20260905192603 | 26 | 69 | 4.8 | 11.3 | 0.00 | 0.00 | 0.00 | 68 | 1018.5 |
| 20260905192103 | 26 | 22 | 4.8 | 9.7 | 0.00 | 0.00 | 0.00 | 68 | 1018.5 |